createdAt,value
2017-10-09T00:02:15.315Z,3.43
2017-10-09T00:04:43.582Z,4.75
2017-10-09T00:07:11.883Z,3.95
2017-10-09T00:09:40.907Z,3.85
2017-10-09T00:12:09.214Z,3.75
2017-10-09T00:14:38.255Z,3.90
2017-10-09T00:17:06.523Z,4.00
2017-10-09T00:19:34.815Z,4.47
2017-10-09T00:22:03.858Z,3.60
2017-10-09T00:24:32.161Z,4.20
2017-10-09T00:27:01.199Z,4.18
2017-10-09T00:29:29.990Z,3.87
2017-10-09T00:31:58.275Z,4.10
2017-10-09T00:34:27.316Z,4.37
2017-10-09T00:36:55.623Z,3.53
2017-10-09T00:39:24.674Z,4.82
2017-10-09T00:41:52.946Z,3.85
2017-10-09T00:44:21.243Z,4.12
2017-10-09T00:46:49.523Z,3.78
2017-10-09T00:49:17.813Z,3.87
2017-10-09T00:51:46.090Z,4.15
2017-10-09T00:54:14.691Z,3.60
2017-10-09T00:56:43.719Z,3.75
2017-10-09T00:59:12.016Z,4.45
2017-10-09T01:01:41.054Z,3.85
2017-10-09T01:04:09.331Z,3.30
2017-10-09T01:06:37.616Z,3.13
2017-10-09T01:09:06.671Z,4.40
2017-10-09T01:11:34.971Z,3.97
2017-10-09T01:14:03.238Z,4.43
2017-10-09T01:16:31.615Z,4.07
2017-10-09T01:18:59.883Z,4.50
2017-10-09T01:21:28.159Z,3.95
2017-10-09T01:23:56.443Z,3.50
2017-10-09T01:26:25.647Z,3.92
2017-10-09T01:28:54.715Z,3.85
2017-10-09T01:31:22.987Z,3.87
2017-10-09T01:33:52.307Z,3.58
2017-10-09T01:36:20.575Z,4.20
2017-10-09T01:38:48.867Z,4.10
2017-10-09T01:41:17.174Z,3.97
2017-10-09T01:43:45.450Z,4.10
2017-10-09T01:46:13.786Z,4.20
2017-10-09T01:48:42.822Z,3.97
2017-10-09T01:51:11.454Z,3.83
2017-10-09T01:53:39.720Z,3.80
2017-10-09T01:56:08.000Z,3.42
2017-10-09T01:58:36.306Z,3.80
2017-10-09T02:01:05.348Z,4.23
2017-10-09T02:03:33.637Z,3.97
2017-10-09T02:06:01.923Z,4.45
2017-10-09T02:08:30.979Z,3.55
2017-10-09T02:10:59.276Z,3.75
2017-10-09T02:13:27.679Z,3.90
2017-10-09T02:15:56.783Z,4.45
2017-10-09T02:18:25.085Z,3.80
2017-10-09T02:20:53.370Z,4.00
2017-10-09T02:23:21.663Z,4.40
2017-10-09T02:25:49.959Z,3.53
2017-10-09T02:28:18.230Z,4.00
2017-10-09T02:30:46.503Z,3.70
2017-10-09T02:33:14.787Z,3.85
2017-10-09T02:35:43.075Z,3.85
2017-10-09T02:38:11.359Z,4.55
2017-10-09T02:40:40.394Z,4.03
2017-10-09T02:43:08.986Z,4.12
2017-10-09T02:45:37.259Z,4.50
2017-10-09T02:48:06.311Z,4.27
2017-10-09T02:50:34.599Z,4.00
2017-10-09T02:53:03.645Z,4.15
2017-10-09T02:55:31.927Z,3.97
2017-10-09T02:58:00.200Z,3.62
2017-10-09T03:00:29.258Z,3.97
2017-10-09T03:02:59.026Z,3.77
2017-10-09T03:05:27.336Z,4.60
2017-10-09T03:07:56.375Z,4.03
2017-10-09T03:10:24.703Z,3.80
2017-10-09T03:12:52.994Z,4.12
2017-10-09T03:15:21.255Z,4.70
2017-10-09T03:17:49.539Z,3.80
2017-10-09T03:20:17.807Z,4.28
2017-10-09T03:22:52.314Z,3.75
2017-10-09T03:25:26.407Z,3.62
2017-10-09T03:30:54.559Z,4.07
2017-10-09T03:33:22.867Z,3.85
2017-10-09T03:35:51.895Z,3.42
2017-10-09T03:38:20.160Z,4.10
2017-10-09T03:40:48.430Z,3.93
2017-10-09T03:43:16.704Z,3.87
2017-10-09T03:45:44.971Z,3.42
2017-10-09T03:48:14.218Z,3.85
2017-10-09T03:50:42.493Z,3.93
2017-10-09T03:53:10.751Z,4.05
2017-10-09T03:55:39.051Z,3.87
2017-10-09T03:58:08.071Z,3.70
2017-10-09T04:00:36.331Z,4.20
2017-10-09T04:03:04.606Z,4.05
2017-10-09T04:05:32.866Z,4.05
2017-10-09T04:08:01.135Z,4.70
2017-10-09T04:10:29.407Z,3.20
2017-10-09T04:12:57.679Z,4.25
2017-10-09T04:15:25.939Z,3.20
2017-10-09T04:17:54.402Z,4.55
2017-10-09T04:20:22.678Z,5.60
2017-10-09T04:22:51.702Z,4.97
2017-10-09T04:25:19.979Z,4.70
2017-10-09T04:27:48.247Z,4.22
2017-10-09T04:30:16.531Z,3.93
2017-10-09T04:32:44.787Z,3.80
2017-10-09T04:35:13.091Z,4.12
2017-10-09T04:37:41.342Z,3.63
2017-10-09T04:40:09.602Z,3.30
2017-10-09T04:42:37.878Z,3.85
2017-10-09T04:45:06.906Z,3.47
2017-10-09T04:47:35.214Z,3.12
2017-10-09T04:50:03.483Z,2.85
2017-10-09T04:52:31.792Z,3.80
2017-10-09T04:55:00.043Z,3.17
2017-10-09T04:57:28.307Z,3.67
2017-10-09T04:59:56.578Z,3.67
2017-10-09T05:02:24.848Z,4.10
2017-10-09T05:04:53.135Z,3.87
2017-10-09T05:07:21.386Z,2.97
2017-10-09T05:09:50.426Z,4.12
2017-10-09T05:12:18.691Z,4.57
2017-10-09T05:14:48.290Z,4.18
2017-10-09T05:17:16.570Z,4.35
2017-10-09T05:19:45.591Z,3.97
2017-10-09T05:22:13.880Z,5.12
2017-10-09T05:24:42.148Z,4.30
2017-10-09T05:27:10.411Z,3.63
2017-10-09T05:29:38.679Z,4.65
2017-10-09T05:32:06.954Z,4.00
2017-10-09T05:34:35.986Z,3.37
2017-10-09T05:37:04.268Z,3.60
2017-10-09T05:39:32.530Z,4.13
2017-10-09T05:42:00.807Z,3.87
2017-10-09T05:44:29.067Z,3.40
2017-10-09T05:46:57.339Z,3.92
2017-10-09T05:49:25.615Z,3.53
2017-10-09T05:51:54.698Z,4.07
2017-10-09T05:54:23.711Z,3.80
2017-10-09T05:56:51.989Z,4.35
2017-10-09T05:59:20.276Z,4.43
2017-10-09T06:01:49.309Z,4.50
2017-10-09T06:04:17.583Z,4.22
2017-10-09T06:06:45.847Z,3.60
2017-10-09T06:09:14.123Z,3.83
2017-10-09T06:11:42.382Z,4.20
2017-10-09T06:14:10.710Z,3.83
2017-10-09T06:16:38.991Z,5.43
2017-10-09T06:19:07.255Z,4.37
2017-10-09T06:21:35.530Z,4.03
2017-10-09T06:24:03.799Z,3.90
2017-10-09T06:26:32.076Z,4.15
2017-10-09T06:29:01.095Z,3.93
2017-10-09T06:31:29.351Z,4.13
2017-10-09T06:33:57.626Z,4.20
2017-10-09T06:36:25.882Z,3.45
2017-10-09T06:38:54.167Z,3.67
2017-10-09T06:41:22.429Z,4.47
2017-10-09T06:43:50.682Z,3.70
2017-10-09T06:46:18.958Z,4.22
2017-10-09T06:48:47.215Z,4.00
2017-10-09T06:51:15.486Z,4.78
2017-10-09T06:56:42.800Z,3.70
2017-10-09T06:59:11.058Z,3.28
2017-10-09T07:01:39.346Z,3.07
2017-10-09T07:04:07.619Z,3.58
2017-10-09T07:06:36.811Z,3.55
2017-10-09T07:09:05.106Z,3.22
2017-10-09T07:11:33.378Z,3.57
2017-10-09T07:14:01.667Z,3.00
2017-10-09T07:16:31.934Z,4.50
2017-10-09T07:19:00.227Z,4.05
2017-10-09T07:21:28.508Z,3.45
2017-10-09T07:23:56.899Z,4.03
2017-10-09T07:26:25.181Z,3.83
2017-10-09T07:28:53.442Z,3.60
2017-10-09T07:31:21.727Z,3.10
2017-10-09T07:33:49.997Z,2.92
2017-10-09T07:36:18.298Z,3.27
2017-10-09T07:38:47.326Z,3.30
2017-10-09T07:41:15.592Z,4.60
2017-10-09T07:43:43.883Z,3.47
2017-10-09T07:46:12.144Z,3.25
2017-10-09T07:48:41.201Z,3.83
2017-10-09T07:51:09.483Z,4.00
2017-10-09T07:53:37.751Z,4.20
2017-10-09T07:56:06.813Z,3.10
2017-10-09T07:58:36.603Z,2.70
2017-10-09T08:01:04.875Z,3.35
2017-10-09T08:03:33.200Z,3.70
2017-10-09T08:06:01.504Z,2.80
2017-10-09T08:08:31.326Z,2.95
2017-10-09T08:10:59.599Z,3.12
2017-10-09T08:13:27.901Z,2.80
2017-10-09T08:15:56.211Z,2.97
2017-10-09T08:18:24.484Z,3.05
2017-10-09T08:20:52.767Z,2.22
2017-10-09T08:23:21.026Z,3.12
2017-10-09T08:25:49.328Z,3.03
2017-10-09T08:28:17.591Z,2.83
2017-10-09T08:30:45.858Z,2.60
2017-10-09T08:33:14.899Z,2.80
2017-10-09T08:35:43.167Z,2.92
2017-10-09T08:38:11.485Z,2.80
2017-10-09T08:40:39.742Z,3.00
2017-10-09T08:43:08.022Z,3.22
2017-10-09T08:45:36.296Z,2.73
2017-10-09T08:48:04.595Z,2.95
2017-10-09T08:50:32.858Z,2.33
2017-10-09T08:53:01.896Z,2.40
2017-10-09T08:55:30.199Z,1.90
2017-10-09T08:57:58.543Z,2.30
2017-10-09T09:00:26.823Z,2.45
2017-10-09T09:02:55.138Z,2.85
2017-10-09T09:05:23.423Z,2.53
2017-10-09T09:07:51.710Z,2.40
2017-10-09T09:10:20.778Z,2.87
2017-10-09T09:12:49.047Z,2.58
2017-10-09T09:15:17.338Z,3.17
2017-10-09T09:17:45.614Z,2.85
2017-10-09T09:20:13.883Z,2.50
2017-10-09T09:22:42.182Z,2.92
2017-10-09T09:25:14.305Z,2.97
2017-10-09T09:27:42.585Z,2.50
2017-10-09T09:30:10.867Z,2.00
2017-10-09T09:32:39.131Z,1.52
2017-10-09T09:35:08.185Z,2.40
2017-10-09T09:37:36.446Z,2.20
2017-10-09T09:40:05.040Z,2.10
2017-10-09T09:42:33.301Z,2.30
2017-10-09T09:45:01.559Z,3.00
2017-10-09T09:47:30.611Z,2.92
2017-10-09T09:49:58.894Z,3.22
2017-10-09T09:52:27.170Z,2.58
2017-10-09T09:54:56.203Z,2.50
2017-10-09T09:57:24.519Z,2.10
2017-10-09T09:59:53.551Z,2.35
2017-10-09T10:02:21.868Z,2.30
2017-10-09T10:04:50.135Z,2.87
2017-10-09T10:07:18.403Z,1.60
2017-10-09T10:09:46.693Z,3.08
2017-10-09T10:12:14.947Z,2.70
2017-10-09T10:14:43.228Z,2.22
2017-10-09T10:17:11.496Z,2.35
2017-10-09T10:19:39.807Z,2.08
2017-10-09T10:22:08.076Z,2.08
2017-10-09T10:24:36.338Z,1.30
2017-10-09T10:27:04.619Z,1.50
2017-10-09T10:29:32.890Z,1.62
2017-10-09T10:32:01.179Z,1.90
2017-10-09T10:34:29.452Z,2.10
2017-10-09T10:36:58.527Z,1.73
2017-10-09T10:39:27.566Z,1.90
2017-10-09T10:41:55.830Z,1.45
2017-10-09T10:44:24.146Z,1.60
2017-10-09T10:46:52.416Z,1.40
2017-10-09T10:49:21.147Z,1.60
2017-10-09T10:51:49.420Z,0.97
2017-10-09T10:54:18.447Z,1.40
2017-10-09T10:56:46.743Z,1.20
2017-10-09T10:59:15.007Z,1.00
2017-10-09T11:01:43.295Z,1.27
2017-10-09T11:04:12.322Z,1.55
2017-10-09T11:06:40.639Z,1.15
2017-10-09T11:09:09.666Z,1.10
2017-10-09T11:11:37.935Z,1.30
2017-10-09T11:14:06.234Z,1.57
2017-10-09T11:16:35.278Z,1.37
2017-10-09T11:19:04.759Z,1.10
2017-10-09T11:21:33.033Z,1.80
2017-10-09T11:24:01.307Z,1.30
2017-10-09T11:26:29.587Z,1.87
2017-10-09T11:28:58.626Z,1.75
2017-10-09T11:31:26.895Z,2.10
2017-10-09T11:33:55.179Z,1.97
2017-10-09T11:36:24.211Z,1.50
2017-10-09T11:38:52.470Z,1.70
2017-10-09T11:41:20.759Z,2.30
2017-10-09T11:43:49.022Z,2.25
2017-10-09T11:46:17.299Z,2.20
2017-10-09T11:48:45.566Z,1.90
2017-10-09T11:51:14.663Z,2.05
2017-10-09T11:53:42.936Z,2.40
2017-10-09T11:56:11.196Z,2.37
2017-10-09T11:58:39.491Z,1.85
2017-10-09T12:01:07.743Z,2.37
2017-10-09T12:03:36.027Z,1.95
2017-10-09T12:06:04.299Z,1.70
2017-10-09T12:08:32.762Z,2.20
2017-10-09T12:11:01.027Z,2.12
2017-10-09T12:13:29.294Z,2.12
2017-10-09T12:15:58.347Z,1.77
2017-10-09T12:18:26.619Z,2.42
2017-10-09T12:20:54.898Z,2.12
2017-10-09T12:23:23.931Z,1.50
2017-10-09T12:25:52.215Z,1.53
2017-10-09T12:28:20.483Z,1.60
2017-10-09T12:30:49.539Z,1.52
2017-10-09T12:33:17.810Z,1.40
2017-10-09T12:35:46.096Z,1.33
2017-10-09T12:38:15.127Z,1.50
2017-10-09T12:40:43.415Z,1.45
2017-10-09T12:43:11.686Z,1.40
2017-10-09T12:45:40.003Z,1.40
2017-10-09T12:48:08.267Z,1.60
2017-10-09T12:50:36.530Z,1.55
2017-10-09T12:53:04.823Z,1.60
2017-10-09T12:55:33.090Z,1.37
2017-10-09T12:58:01.391Z,1.65
2017-10-09T13:00:29.663Z,1.10
2017-10-09T13:02:57.927Z,1.60
2017-10-09T13:05:26.211Z,1.40
2017-10-09T13:07:54.478Z,1.50
2017-10-09T13:10:22.759Z,2.87
2017-10-09T13:12:51.031Z,1.40
2017-10-09T13:15:19.310Z,2.00
2017-10-09T13:17:48.343Z,1.70
2017-10-09T13:20:16.628Z,2.08
2017-10-09T13:22:44.897Z,1.98
2017-10-09T13:25:13.154Z,1.93
2017-10-09T13:27:42.206Z,1.98
2017-10-09T13:30:10.478Z,2.50
2017-10-09T13:32:38.762Z,1.52
2017-10-09T13:35:07.790Z,1.80
2017-10-09T13:37:36.076Z,1.65
2017-10-09T13:40:04.347Z,2.20
2017-10-09T13:42:32.637Z,1.87
2017-10-09T13:45:01.675Z,2.20
2017-10-09T13:47:29.987Z,2.15
2017-10-09T13:49:58.259Z,2.05
2017-10-09T13:52:26.527Z,2.30
2017-10-09T13:54:54.815Z,2.45
2017-10-09T13:57:23.079Z,2.43
2017-10-09T13:59:51.375Z,2.28
2017-10-09T14:02:20.411Z,2.30
2017-10-09T14:04:48.707Z,2.25
2017-10-09T14:07:17.734Z,1.95
2017-10-09T14:09:46.010Z,1.90
2017-10-09T14:12:14.282Z,2.03
2017-10-09T14:14:42.569Z,2.00
2017-10-09T14:17:10.942Z,1.90
2017-10-09T14:19:39.255Z,2.67
2017-10-09T14:22:07.627Z,2.60
2017-10-09T14:24:36.774Z,1.60
2017-10-09T14:27:05.088Z,2.40
2017-10-09T14:29:33.365Z,2.03
2017-10-09T14:41:56.295Z,2.25
2017-10-09T14:44:25.021Z,2.50
2017-10-09T14:46:53.291Z,2.65
2017-10-09T14:49:21.561Z,2.45
2017-10-09T14:51:49.849Z,2.85
2017-10-09T14:54:19.620Z,2.47
2017-10-09T14:56:47.903Z,2.17
2017-10-09T14:59:16.176Z,2.60
2017-10-09T15:01:44.447Z,2.30
2017-10-09T15:04:13.484Z,3.72
2017-10-09T15:06:41.767Z,2.65
2017-10-09T15:09:10.026Z,2.53
2017-10-09T15:11:38.315Z,2.90
2017-10-09T15:14:07.344Z,2.40
2017-10-09T15:16:35.670Z,2.97
2017-10-09T15:19:03.935Z,2.78
2017-10-09T15:21:32.204Z,2.50
2017-10-09T15:24:00.491Z,2.83
2017-10-09T15:26:28.751Z,2.90
2017-10-09T15:28:57.044Z,3.17
2017-10-09T15:31:25.316Z,3.08
2017-10-09T15:33:54.340Z,2.92
2017-10-09T15:36:22.627Z,2.80
2017-10-09T15:38:50.890Z,2.83
2017-10-09T15:41:19.171Z,3.50
2017-10-09T15:43:48.207Z,3.05
2017-10-09T15:46:16.499Z,3.00
2017-10-09T15:48:44.771Z,2.70
2017-10-09T15:53:49.173Z,3.50
2017-10-09T15:56:17.441Z,3.45
2017-10-09T15:58:45.744Z,3.85
2017-10-09T16:01:14.003Z,2.60
2017-10-09T16:03:42.279Z,3.75
2017-10-09T16:06:10.564Z,3.45
2017-10-09T16:08:38.827Z,3.20
2017-10-09T16:11:07.131Z,3.07
2017-10-09T16:13:35.400Z,3.15
2017-10-09T16:16:03.691Z,10.77
2017-10-09T16:18:31.967Z,7.28
2017-10-09T16:21:04.660Z,6.90
2017-10-09T16:23:33.687Z,3.90
2017-10-09T16:26:02.097Z,4.85
2017-10-09T16:28:30.383Z,3.42
2017-10-09T16:30:59.417Z,4.57
2017-10-09T16:33:27.705Z,3.90
2017-10-09T16:35:56.736Z,4.30
2017-10-09T16:38:25.074Z,4.10
2017-10-09T16:40:53.332Z,4.00
2017-10-09T16:43:21.623Z,4.72
2017-10-09T16:45:50.667Z,4.40
2017-10-09T16:48:18.936Z,4.00
2017-10-09T16:50:48.368Z,3.85
2017-10-09T16:53:17.523Z,3.90
2017-10-09T16:55:47.188Z,3.92
2017-10-09T16:58:16.228Z,3.60
2017-10-09T17:00:45.100Z,3.78
2017-10-09T17:03:13.388Z,4.18
2017-10-09T17:05:42.513Z,4.80
2017-10-09T17:08:10.814Z,4.03
2017-10-09T17:10:40.906Z,3.83
2017-10-09T17:13:09.181Z,3.45
2017-10-09T17:15:39.199Z,4.68
2017-10-09T17:18:07.484Z,5.18
2017-10-09T17:20:36.515Z,4.45
2017-10-09T17:23:04.795Z,3.35
2017-10-09T17:25:33.826Z,3.80
2017-10-09T17:28:02.149Z,3.80
2017-10-09T17:30:31.723Z,3.08
2017-10-09T17:33:00.009Z,4.23
2017-10-09T17:35:29.035Z,4.20
2017-10-09T17:37:57.355Z,3.80
2017-10-09T17:40:25.645Z,4.32
2017-10-09T17:42:53.899Z,4.20
2017-10-09T17:45:22.183Z,4.15
2017-10-09T17:47:50.448Z,4.65
2017-10-09T17:50:18.727Z,5.00
2017-10-09T17:52:47.761Z,4.87
2017-10-09T17:55:16.055Z,4.70
2017-10-09T17:57:44.308Z,4.53
2017-10-09T18:00:12.616Z,4.43
2017-10-09T18:02:41.722Z,4.23
2017-10-09T18:05:09.966Z,4.17
2017-10-09T18:07:38.268Z,4.20
2017-10-09T18:10:06.522Z,4.70
2017-10-09T18:12:34.812Z,4.95
2017-10-09T18:15:03.084Z,5.60
2017-10-09T18:17:31.368Z,6.65
2017-10-09T18:19:59.656Z,6.43
2017-10-09T18:22:28.418Z,5.10
2017-10-09T18:24:56.695Z,5.68
2017-10-09T18:27:24.971Z,6.20
2017-10-09T18:29:53.235Z,6.40
2017-10-09T18:32:21.528Z,7.20
2017-10-09T18:34:50.568Z,6.30
2017-10-09T18:37:18.884Z,6.72
2017-10-09T18:39:47.155Z,7.12
2017-10-09T18:42:15.419Z,5.95
2017-10-09T18:44:43.703Z,7.50
2017-10-09T18:47:11.964Z,5.90
2017-10-09T18:49:40.267Z,6.95
2017-10-09T18:52:08.538Z,6.00
2017-10-09T18:54:37.566Z,6.62
2017-10-09T18:57:05.856Z,6.37
2017-10-09T18:59:34.895Z,5.90
2017-10-09T19:02:03.184Z,6.87
2017-10-09T19:04:31.451Z,6.03
2017-10-09T19:06:59.744Z,7.82
2017-10-09T19:09:28.781Z,6.97
2017-10-09T19:11:57.083Z,7.50
2017-10-09T19:14:26.115Z,6.65
2017-10-09T19:16:54.419Z,6.95
2017-10-09T19:19:23.455Z,6.47
2017-10-09T19:21:51.744Z,7.22
2017-10-09T19:24:20.036Z,6.10
2017-10-09T19:26:49.071Z,7.40
2017-10-09T19:29:17.655Z,6.57
2017-10-09T19:31:46.795Z,7.85
2017-10-09T19:34:15.388Z,5.60
2017-10-09T19:36:43.664Z,7.62
2017-10-09T19:39:11.943Z,6.87
2017-10-09T19:41:40.996Z,6.78
2017-10-09T19:44:09.267Z,7.30
2017-10-09T19:46:38.351Z,8.07
2017-10-09T19:49:06.621Z,6.95
2017-10-09T19:51:35.656Z,8.10
2017-10-09T19:54:03.948Z,7.00
2017-10-09T19:56:32.215Z,6.68
2017-10-09T19:59:00.510Z,7.12
2017-10-09T20:01:28.792Z,7.15
2017-10-09T20:03:57.188Z,6.05
2017-10-09T20:06:25.451Z,6.47
2017-10-09T20:08:53.720Z,6.65
2017-10-09T20:11:22.007Z,7.57
2017-10-09T20:13:50.288Z,5.95
2017-10-09T20:16:18.562Z,6.75
2017-10-09T20:18:46.846Z,8.10
2017-10-09T20:21:15.151Z,7.85
2017-10-09T20:23:44.210Z,7.07
2017-10-09T20:26:12.483Z,8.25
2017-10-09T20:28:41.527Z,7.97
2017-10-09T20:31:09.799Z,7.00
2017-10-09T20:33:38.088Z,8.00
2017-10-09T20:36:07.129Z,7.35
2017-10-09T20:38:35.451Z,8.52
2017-10-09T20:41:03.736Z,7.43
2017-10-09T20:43:32.012Z,8.27
2017-10-09T20:46:00.308Z,8.27
2017-10-09T20:48:29.352Z,7.93
2017-10-09T20:50:57.662Z,7.95
2017-10-09T20:53:25.956Z,7.43
2017-10-09T20:55:55.283Z,9.18
2017-10-09T20:58:23.552Z,8.20
2017-10-09T21:00:52.590Z,7.50
2017-10-09T21:03:20.879Z,9.07
2017-10-09T21:05:49.152Z,7.62
2017-10-09T21:08:18.214Z,7.30
2017-10-09T21:10:46.476Z,7.32
2017-10-09T21:13:14.959Z,6.70
2017-10-09T21:15:43.238Z,7.78
2017-10-09T21:18:11.520Z,6.12
2017-10-09T21:20:39.812Z,6.90
2017-10-09T21:23:08.088Z,7.90
2017-10-09T21:25:36.375Z,7.57
2017-10-09T21:28:05.418Z,6.87
2017-10-09T21:30:33.760Z,7.45
2017-10-09T21:33:02.032Z,6.30
2017-10-09T21:35:30.309Z,8.18
2017-10-09T21:37:58.601Z,7.80
2017-10-09T21:40:27.626Z,6.90
2017-10-09T21:42:55.976Z,7.37
2017-10-09T21:45:25.703Z,6.55
2017-10-09T21:47:55.499Z,6.63
2017-10-09T21:50:23.760Z,5.45
2017-10-09T21:52:52.067Z,6.47
2017-10-09T21:55:21.099Z,5.75
2017-10-09T21:57:49.856Z,6.03
2017-10-09T22:00:18.119Z,6.20
2017-10-09T22:02:46.391Z,6.40
2017-10-09T22:05:14.676Z,5.62
2017-10-09T22:07:44.479Z,6.33
2017-10-09T22:10:13.506Z,6.60
2017-10-09T22:12:41.775Z,7.03
2017-10-09T22:15:10.077Z,5.97
2017-10-09T22:17:38.344Z,6.70
2017-10-09T22:20:06.644Z,6.40
2017-10-09T22:22:34.918Z,7.47
2017-10-09T22:25:03.223Z,7.35
2017-10-09T22:27:31.516Z,6.72
2017-10-09T22:29:59.800Z,7.30
2017-10-09T22:32:28.104Z,6.95
2017-10-09T22:34:56.372Z,8.23
2017-10-09T22:37:24.648Z,7.60
2017-10-09T22:39:53.703Z,6.77
2017-10-09T22:42:23.476Z,7.00
2017-10-09T22:44:51.767Z,8.40
2017-10-09T22:47:20.044Z,7.37
2017-10-09T22:49:49.075Z,7.12
2017-10-09T22:52:17.359Z,7.18
2017-10-09T22:54:45.631Z,6.53
2017-10-09T22:57:14.682Z,7.30
2017-10-09T22:59:42.976Z,7.87
2017-10-09T23:02:12.005Z,7.62
2017-10-09T23:04:40.296Z,7.72
2017-10-09T23:07:08.576Z,7.68
2017-10-09T23:09:37.647Z,8.30
2017-10-09T23:12:05.920Z,9.30
2017-10-09T23:14:34.958Z,9.63
2017-10-09T23:17:03.248Z,9.60
2017-10-09T23:19:31.525Z,8.00
2017-10-09T23:21:59.802Z,8.73
2017-10-09T23:24:28.062Z,8.05
2017-10-09T23:26:56.379Z,7.87
2017-10-09T23:29:24.647Z,9.02
2017-10-09T23:31:52.933Z,8.13
2017-10-09T23:34:21.996Z,9.00
2017-10-09T23:36:50.255Z,8.27
2017-10-09T23:39:18.566Z,8.43
2017-10-09T23:41:46.839Z,10.47
2017-10-09T23:44:15.503Z,9.07
2017-10-09T23:46:43.775Z,7.30
2017-10-09T23:49:12.055Z,7.97
2017-10-09T23:51:40.345Z,8.70
2017-10-09T23:54:09.379Z,8.15
2017-10-09T23:56:37.713Z,10.63
2017-10-09T23:59:05.991Z,9.37
